Aviation

Metar/Speci

station

VRMH

METAR VRMH 081500Z 28006KT 9999 FEW017TCU BKN250 28/25 Q1010=

40 minutes ago

VRMM

METAR VRMM 081500Z 26014KT 9999 SCT016 FEW017CB BKN022 27/24 Q1011 CB W,NW TEMPO 5000 SHRA=

39 minutes ago

VRMK

METAR VRMK 081500Z 24008KT 9999 FEW018TCU BKN120 28/25 Q1010=

37 minutes ago

VRMT

METAR VRMT 081500Z 26015KT 9999 FEW017TCU BKN260 28/24 Q1010=

40 minutes ago

VRMG

METAR VRMG 081500Z 28017KT 9999 FEW017TCU OVC240 28/24 Q1010 NOSIG=

40 minutes ago

Synop

station

43533

AAXX 08154 43533 42460 72706 10279 20245 30107 40109 82248 333 59005 82817 87275=

40 minutes ago

43555

AAXX 08154 43555 41460 72714 10273 20243 30113 40115 70382 879// 333 59004 83816 81917 86622=

39 minutes ago

43577

AAXX 08154 43577 41462 72508 10276 20252 30105 40107 72582 82272 333 59008 83018 87362=

37 minutes ago

43588

AAXX 08154 43588 42460 72715 10280 20239 30104 40105 82238 333 59003 82817 87276=

40 minutes ago

43599

AAXX 08154 43599 42460 82717 10276 20243 30101 40103 82237 333 59012 82817 88274=

40 minutes ago

Tafs

station

VRMH

VRMH 081100Z 0812/0918 27008KT 9999 FEW018TCU TEMPO 0812/0818 5000 SHRA FEW018CB=

4 hours ago

VRMM

VRMM 081100Z 0812/0918 27015KT 9999 FEW018TCU TEMPO 0812/0818 4000 TSRA FEW017CB=

4 hours ago

VRMK

VRMK 081100Z 0812/0912 26014KT 9999 SCT017TCU BKN110 TEMPO 0812/0818 26018G30KT 4000 TSRA SCT017CB=

4 hours ago

VRMT

VRMT 081100Z 0812/0912 25017KT 9999 FEW017TCU BKN110 TEMPO 0812/0818 25020G33KT 4000 TSRA SCT017CB=

4 hours ago

VRMG

VRMG 081100Z 0812/0918 25020KT 9999 FEW017TCU BKN100 TEMPO 0812/0818 27025G34KT 4000 TSRA SCT017CB=

4 hours ago

Sigmet

Flight folders

No flight folder available at the moment.